Time;durP1;ratioP1;P1;durP2;ratioP2;P2;SDS_P1;SDS_P2;PMS_P1;PMS_P2;Temp;Humidity;BMP_temperature;BMP_pressure;BME280_temperature;BME280_humidity;BME280_pressure;Samples;Min_cycle;Max_cycle;Signal;HPM_P1;HPM_P2
2023/12/16 00:00:32;;;;;;;3.78;2.88;;;;;;;;;;4907450;29;20016;-68
2023/12/16 00:02:57;;;;;;;4.55;2.95;;;;;;;;;;4907933;29;20052;-69
2023/12/16 00:05:23;;;;;;;3.15;2.80;;;;;;;;;;4906195;29;20438;-68
2023/12/16 00:07:49;;;;;;;3.72;3.05;;;;;;;;;;4911329;29;20036;-71
2023/12/16 00:10:16;;;;;;;3.05;2.75;;;;;;;;;;4906296;29;20055;-72
2023/12/16 00:12:42;;;;;;;5.28;3.20;;;;;;;;;;4914810;29;20028;-69
2023/12/16 00:15:10;;;;;;;3.40;2.70;;;;;;;;;;4916275;29;20454;-71
2023/12/16 00:17:36;;;;;;;4.07;2.78;;;;;;;;;;4916333;29;20509;-73
2023/12/16 00:20:01;;;;;;;2.75;2.53;;;;;;;;;;4916195;29;20024;-73
2023/12/16 00:22:27;;;;;;;7.10;3.22;;;;;;;;;;4916276;29;20165;-71
2023/12/16 00:24:52;;;;;;;3.70;2.53;;;;;;;;;;4914337;29;20354;-70
2023/12/16 00:27:18;;;;;;;5.47;3.13;;;;;;;;;;4906277;29;20017;-73
2023/12/16 00:29:44;;;;;;;5.80;3.35;;;;;;;;;;4914482;29;20035;-73
2023/12/16 00:32:09;;;;;;;3.15;2.70;;;;;;;;;;4914404;29;20091;-71
2023/12/16 00:34:35;;;;;;;5.18;3.13;;;;;;;;;;4913056;29;20112;-72
2023/12/16 00:37:05;;;;;;;4.68;2.95;;;;;;;;;;4910057;29;20601;-72
2023/12/16 00:39:32;;;;;;;3.10;2.80;;;;;;;;;;4897858;29;20024;-71
2023/12/16 00:41:58;;;;;;;3.78;2.95;;;;;;;;;;4915603;29;20110;-72
2023/12/16 00:44:24;;;;;;;4.22;3.08;;;;;;;;;;4916487;29;20659;-74
2023/12/16 00:46:49;;;;;;;3.28;2.80;;;;;;;;;;4917529;29;20116;-72
2023/12/16 00:49:15;;;;;;;3.10;2.80;;;;;;;;;;4917617;29;20107;-72
2023/12/16 00:51:40;;;;;;;4.05;2.63;;;;;;;;;;4916687;29;20028;-73
2023/12/16 00:54:06;;;;;;;4.72;3.08;;;;;;;;;;4915028;29;20500;-71
2023/12/16 00:56:31;;;;;;;3.45;2.63;;;;;;;;;;4918114;29;20028;-71
2023/12/16 00:58:57;;;;;;;5.18;3.20;;;;;;;;;;4915007;29;20020;-72
2023/12/16 01:01:23;;;;;;;3.40;2.80;;;;;;;;;;4915882;29;20020;-73
2023/12/16 01:03:48;;;;;;;5.57;2.92;;;;;;;;;;4915632;29;20119;-71
2023/12/16 01:06:14;;;;;;;3.75;2.58;;;;;;;;;;4915858;29;20024;-72
2023/12/16 01:08:39;;;;;;;3.33;2.90;;;;;;;;;;4914596;29;20068;-71
2023/12/16 01:11:05;;;;;;;4.65;2.65;;;;;;;;;;4912617;29;20024;-72
2023/12/16 01:13:31;;;;;;;3.38;2.70;;;;;;;;;;4914248;29;20035;-72
2023/12/16 01:15:57;;;;;;;4.00;2.58;;;;;;;;;;4914794;29;20408;-71
2023/12/16 01:18:23;;;;;;;2.90;2.60;;;;;;;;;;4915650;29;20023;-72
2023/12/16 01:20:50;;;;;;;4.50;2.67;;;;;;;;;;4915464;29;20473;-71
2023/12/16 01:23:15;;;;;;;3.42;2.50;;;;;;;;;;4912463;29;20017;-71
2023/12/16 01:25:41;;;;;;;4.45;2.80;;;;;;;;;;4913213;29;20071;-72
2023/12/16 01:28:06;;;;;;;2.70;2.50;;;;;;;;;;4915603;29;20076;-72
2023/12/16 01:30:32;;;;;;;4.13;2.70;;;;;;;;;;4914587;29;20107;-72
2023/12/16 01:32:58;;;;;;;2.88;2.60;;;;;;;;;;4914371;29;20020;-71
2023/12/16 01:35:23;;;;;;;3.65;2.90;;;;;;;;;;4915283;29;20055;-71
2023/12/16 01:37:49;;;;;;;3.45;2.60;;;;;;;;;;4913818;29;20381;-71
2023/12/16 01:40:14;;;;;;;3.50;2.67;;;;;;;;;;4899321;29;20040;-72
2023/12/16 01:42:40;;;;;;;4.45;2.85;;;;;;;;;;4915049;29;20073;-71
2023/12/16 01:45:06;;;;;;;3.63;2.80;;;;;;;;;;4915175;29;20497;-71
2023/12/16 01:47:32;;;;;;;3.67;2.78;;;;;;;;;;4913945;29;20533;-71
2023/12/16 01:49:58;;;;;;;3.92;2.70;;;;;;;;;;4915047;29;20036;-71
2023/12/16 01:52:24;;;;;;;2.83;2.20;;;;;;;;;;4914889;29;20059;-71
2023/12/16 01:54:50;;;;;;;4.25;2.65;;;;;;;;;;4916310;29;20598;-71
2023/12/16 01:57:16;;;;;;;3.22;2.85;;;;;;;;;;4916363;29;20094;-71
2023/12/16 01:59:42;;;;;;;5.78;2.70;;;;;;;;;;4898521;29;20088;-71
2023/12/16 02:02:09;;;;;;;3.10;2.75;;;;;;;;;;4916120;29;20036;-71
2023/12/16 02:04:34;;;;;;;3.33;2.65;;;;;;;;;;4916188;29;20477;-71
2023/12/16 02:07:00;;;;;;;4.65;2.58;;;;;;;;;;4914818;29;20043;-71
2023/12/16 02:09:26;;;;;;;4.47;3.05;;;;;;;;;;4916409;29;20033;-70
2023/12/16 02:11:52;;;;;;;2.88;2.60;;;;;;;;;;4914927;29;20025;-71
2023/12/16 02:14:19;;;;;;;4.75;2.72;;;;;;;;;;4916142;29;20363;-70
2023/12/16 02:16:44;;;;;;;4.00;2.80;;;;;;;;;;4916055;29;20118;-71
2023/12/16 02:19:14;;;;;;;4.28;2.90;;;;;;;;;;4916314;29;20135;-71
2023/12/16 02:21:40;;;;;;;;;;;;;;;;;;4915348;29;20053;-70
2023/12/16 02:24:05;;;;;;;3.28;2.83;;;;;;;;;;4916155;29;19915;-70
2023/12/16 02:26:31;;;;;;;3.50;2.70;;;;;;;;;;4915898;29;20403;-70
2023/12/16 02:28:56;;;;;;;3.35;2.72;;;;;;;;;;4899821;29;20028;-70
2023/12/16 02:31:22;;;;;;;3.53;2.80;;;;;;;;;;4916036;29;20103;-70
2023/12/16 02:33:47;;;;;;;3.90;3.00;;;;;;;;;;4903587;29;20036;-69
2023/12/16 02:36:13;;;;;;;3.42;2.65;;;;;;;;;;4919576;29;20036;-70
2023/12/16 02:38:38;;;;;;;4.13;2.95;;;;;;;;;;4920772;29;20031;-70
2023/12/16 02:41:04;;;;;;;3.63;2.90;;;;;;;;;;4902699;29;20032;-70
2023/12/16 02:43:29;;;;;;;4.53;2.80;;;;;;;;;;4919629;29;20393;-70
2023/12/16 02:45:55;;;;;;;2.97;2.60;;;;;;;;;;4918526;29;20028;-70
2023/12/16 02:48:20;;;;;;;4.88;2.90;;;;;;;;;;4919694;29;20446;-69
2023/12/16 02:50:46;;;;;;;5.03;3.03;;;;;;;;;;4919429;29;20035;-69
2023/12/16 02:53:11;;;;;;;3.20;2.90;;;;;;;;;;4919283;29;20173;-70
2023/12/16 02:55:37;;;;;;;3.45;2.95;;;;;;;;;;4919534;29;20086;-69
2023/12/16 02:58:02;;;;;;;3.58;2.75;;;;;;;;;;4919212;29;20433;-70
2023/12/16 03:00:28;;;;;;;3.90;3.20;;;;;;;;;;4917933;29;20469;-70
2023/12/16 03:02:53;;;;;;;3.75;3.10;;;;;;;;;;4919474;29;20036;-70
2023/12/16 03:05:19;;;;;;;4.65;3.03;;;;;;;;;;4919624;29;20374;-70
2023/12/16 03:07:44;;;;;;;4.20;3.05;;;;;;;;;;4917971;29;20039;-71
2023/12/16 03:10:10;;;;;;;3.65;2.95;;;;;;;;;;4919030;29;20056;-72
2023/12/16 03:12:36;;;;;;;3.70;2.80;;;;;;;;;;4918976;29;20119;-71
2023/12/16 03:15:03;;;;;;;4.35;2.97;;;;;;;;;;4918922;29;20040;-71
2023/12/16 03:17:29;;;;;;;5.70;3.35;;;;;;;;;;4918918;29;20413;-70
2023/12/16 03:19:55;;;;;;;3.03;2.60;;;;;;;;;;4918892;29;20039;-69
2023/12/16 03:22:20;;;;;;;3.28;2.90;;;;;;;;;;4918858;29;20032;-69
2023/12/16 03:24:46;;;;;;;4.20;2.80;;;;;;;;;;4918770;29;20028;-69
2023/12/16 03:27:11;;;;;;;4.65;3.10;;;;;;;;;;4918877;29;20038;-69
2023/12/16 03:29:37;;;;;;;3.20;2.65;;;;;;;;;;4918676;29;20080;-69
2023/12/16 03:32:03;;;;;;;3.70;3.28;;;;;;;;;;4901760;29;20135;-69
2023/12/16 03:34:30;;;;;;;4.75;3.10;;;;;;;;;;4919089;29;20055;-69
2023/12/16 03:36:56;;;;;;;3.80;2.90;;;;;;;;;;4917514;29;20396;-70
2023/12/16 03:39:21;;;;;;;4.53;3.10;;;;;;;;;;4919285;29;20052;-69
2023/12/16 03:41:47;;;;;;;3.75;2.95;;;;;;;;;;4902342;29;20028;-69
2023/12/16 03:44:12;;;;;;;3.53;2.90;;;;;;;;;;4919359;28;20381;-70
2023/12/16 03:46:38;;;;;;;3.53;2.58;;;;;;;;;;4918684;29;20028;-71
2023/12/16 03:49:03;;;;;;;3.13;2.70;;;;;;;;;;4918343;29;20140;-71
2023/12/16 03:51:29;;;;;;;4.53;2.95;;;;;;;;;;4918597;29;20024;-71
2023/12/16 03:53:54;;;;;;;3.53;2.80;;;;;;;;;;4918106;29;20080;-71
2023/12/16 03:56:20;;;;;;;3.40;2.90;;;;;;;;;;4916911;29;20127;-71
2023/12/16 03:58:45;;;;;;;3.13;2.42;;;;;;;;;;4918222;29;20035;-70
2023/12/16 04:01:13;;;;;;;3.15;2.65;;;;;;;;;;4918163;29;20032;-71
2023/12/16 04:03:41;;;;;;;5.32;3.17;;;;;;;;;;4918535;29;20031;-70
2023/12/16 04:06:14;;;;;;;3.03;2.40;;;;;;;;;;4918387;29;20039;-70
2023/12/16 04:08:40;;;;;;;3.33;2.80;;;;;;;;;;4917956;29;20496;-71
2023/12/16 04:11:06;;;;;;;3.83;3.05;;;;;;;;;;4918231;29;20055;-71
2023/12/16 04:13:34;;;;;;;4.60;2.97;;;;;;;;;;4900901;29;20062;-71
2023/12/16 04:16:00;;;;;;;3.42;2.63;;;;;;;;;;4917780;29;20474;-72
2023/12/16 04:18:27;;;;;;;3.70;2.80;;;;;;;;;;4917920;29;20028;-72
2023/12/16 04:20:53;;;;;;;3.35;2.83;;;;;;;;;;4917819;29;20032;-73
2023/12/16 04:23:18;;;;;;;3.97;3.00;;;;;;;;;;4917795;29;20125;-72
2023/12/16 04:25:44;;;;;;;4.28;2.75;;;;;;;;;;4919318;29;20039;-72
2023/12/16 04:28:09;;;;;;;3.72;2.75;;;;;;;;;;4917749;29;20055;-71
2023/12/16 04:30:35;;;;;;;3.20;2.90;;;;;;;;;;4917272;29;20028;-72
2023/12/16 04:33:00;;;;;;;3.78;2.90;;;;;;;;;;4916426;29;20544;-70
2023/12/16 04:35:26;;;;;;;3.20;2.90;;;;;;;;;;4918278;29;20032;-70
2023/12/16 04:37:51;;;;;;;3.65;3.00;;;;;;;;;;4919107;29;20039;-70
2023/12/16 04:40:17;;;;;;;3.40;2.95;;;;;;;;;;4919314;29;20457;-70
2023/12/16 04:42:43;;;;;;;3.38;2.60;;;;;;;;;;4917686;29;20474;-71
2023/12/16 04:45:09;;;;;;;3.75;2.72;;;;;;;;;;4917611;29;20111;-71
2023/12/16 04:47:38;;;;;;;3.53;3.05;;;;;;;;;;4917352;29;20027;-70
2023/12/16 04:50:04;;;;;;;3.97;2.92;;;;;;;;;;4917342;29;20024;-70
2023/12/16 04:52:30;;;;;;;4.55;2.75;;;;;;;;;;4917269;29;20132;-71
2023/12/16 04:54:55;;;;;;;3.25;2.60;;;;;;;;;;4916703;29;20473;-71
2023/12/16 04:57:21;;;;;;;4.13;2.80;;;;;;;;;;4917238;29;20064;-71
2023/12/16 04:59:46;;;;;;;3.58;2.80;;;;;;;;;;4917157;29;20115;-71
2023/12/16 05:02:12;;;;;;;3.40;2.90;;;;;;;;;;4917009;29;20055;-71
2023/12/16 05:04:37;;;;;;;5.22;2.78;;;;;;;;;;4917365;29;20059;-71
2023/12/16 05:07:03;;;;;;;3.08;2.67;;;;;;;;;;4917351;29;20030;-71
2023/12/16 05:09:29;;;;;;;3.70;2.75;;;;;;;;;;4917299;29;20422;-70
2023/12/16 05:11:54;;;;;;;3.63;3.00;;;;;;;;;;4917030;29;20032;-70
2023/12/16 05:14:20;;;;;;;3.58;3.00;;;;;;;;;;4916882;29;20028;-70
2023/12/16 05:16:47;;;;;;;3.10;2.75;;;;;;;;;;4916820;29;20028;-70
2023/12/16 05:19:12;;;;;;;4.32;2.88;;;;;;;;;;4916843;29;20028;-70
2023/12/16 05:21:38;;;;;;;3.28;2.97;;;;;;;;;;4916725;29;20036;-70
2023/12/16 05:24:03;;;;;;;3.28;2.97;;;;;;;;;;4916816;29;20064;-70
2023/12/16 05:26:29;;;;;;;3.65;3.00;;;;;;;;;;4916677;29;20061;-70
2023/12/16 05:28:54;;;;;;;4.20;3.30;;;;;;;;;;4916726;29;20020;-69
2023/12/16 05:31:20;;;;;;;3.42;2.88;;;;;;;;;;4916660;29;20497;-70
2023/12/16 05:33:45;;;;;;;4.45;3.25;;;;;;;;;;4916846;29;20024;-72
2023/12/16 05:36:11;;;;;;;4.65;3.08;;;;;;;;;;4916542;29;20075;-69
2023/12/16 05:38:39;;;;;;;3.10;2.70;;;;;;;;;;4916502;29;20036;-70
2023/12/16 05:41:06;;;;;;;4.00;2.72;;;;;;;;;;4916700;29;20056;-70
2023/12/16 05:43:32;;;;;;;4.10;3.13;;;;;;;;;;4916560;29;20028;-70
2023/12/16 05:45:57;;;;;;;4.43;3.05;;;;;;;;;;4916540;29;20024;-70
2023/12/16 05:48:23;;;;;;;4.45;3.03;;;;;;;;;;4918217;29;20031;-71
2023/12/16 05:50:48;;;;;;;4.32;3.00;;;;;;;;;;4917605;29;20091;-71
2023/12/16 05:53:14;;;;;;;3.33;3.03;;;;;;;;;;4916270;29;20524;-72
2023/12/16 05:55:40;;;;;;;3.53;2.97;;;;;;;;;;4916722;29;20064;-71
2023/12/16 05:58:06;;;;;;;3.67;3.17;;;;;;;;;;4900532;29;20549;-71
2023/12/16 06:00:32;;;;;;;5.47;3.42;;;;;;;;;;4917272;29;20036;-69
2023/12/16 06:02:57;;;;;;;3.65;3.13;;;;;;;;;;4916959;29;20038;-69
2023/12/16 06:05:23;;;;;;;5.18;3.45;;;;;;;;;;4916870;29;20028;-70
2023/12/16 06:07:48;;;;;;;5.78;3.45;;;;;;;;;;4918633;29;20508;-70
2023/12/16 06:10:14;;;;;;;5.13;3.17;;;;;;;;;;4920367;29;20077;-70
2023/12/16 06:12:40;;;;;;;4.32;3.10;;;;;;;;;;4920123;29;20054;-69
2023/12/16 06:15:06;;;;;;;6.13;3.50;;;;;;;;;;4921601;28;20033;-70
2023/12/16 06:17:32;;;;;;;4.05;2.95;;;;;;;;;;4903043;29;20051;-69
2023/12/16 06:19:57;;;;;;;5.57;3.20;;;;;;;;;;4920005;29;20485;-70
2023/12/16 06:22:24;;;;;;;4.32;3.10;;;;;;;;;;4920331;29;20032;-72
2023/12/16 06:24:49;;;;;;;5.05;3.47;;;;;;;;;;4919959;29;20036;-70
2023/12/16 06:27:15;;;;;;;8.68;3.55;;;;;;;;;;4919965;29;20035;-70
2023/12/16 06:29:40;;;;;;;6.53;3.70;;;;;;;;;;4919898;29;20036;-70
2023/12/16 06:32:06;;;;;;;5.22;3.42;;;;;;;;;;4919813;29;20032;-70
2023/12/16 06:34:32;;;;;;;4.55;3.25;;;;;;;;;;4920687;29;20028;-70
2023/12/16 06:36:58;;;;;;;3.97;3.28;;;;;;;;;;4919692;29;20477;-70
2023/12/16 06:39:23;;;;;;;7.22;3.60;;;;;;;;;;4919950;29;20038;-70
2023/12/16 06:41:49;;;;;;;5.03;3.50;;;;;;;;;;4919939;29;20029;-71
2023/12/16 06:44:14;;;;;;;7.45;3.38;;;;;;;;;;4919571;29;20413;-71
2023/12/16 06:46:40;;;;;;;5.38;3.67;;;;;;;;;;4919459;29;20036;-71
2023/12/16 06:49:05;;;;;;;4.65;3.35;;;;;;;;;;4919527;29;20020;-71
2023/12/16 06:51:31;;;;;;;5.43;3.65;;;;;;;;;;4919377;29;20037;-71
2023/12/16 06:53:57;;;;;;;4.70;3.58;;;;;;;;;;4920111;29;20076;-71
2023/12/16 06:56:22;;;;;;;6.55;3.75;;;;;;;;;;4919747;29;20032;-71
2023/12/16 06:58:48;;;;;;;5.72;4.10;;;;;;;;;;4919521;29;20496;-70
2023/12/16 07:01:14;;;;;;;5.97;4.03;;;;;;;;;;4919362;29;20032;-70
2023/12/16 07:03:39;;;;;;;6.10;4.10;;;;;;;;;;4919284;29;20028;-70
2023/12/16 07:06:06;;;;;;;5.63;3.95;;;;;;;;;;4920314;29;20028;-70
2023/12/16 07:08:31;;;;;;;4.35;3.45;;;;;;;;;;4919190;29;20125;-69
2023/12/16 07:10:57;;;;;;;6.30;4.10;;;;;;;;;;4919052;29;20164;-69
2023/12/16 07:13:23;;;;;;;5.53;3.55;;;;;;;;;;4919083;29;20432;-69
2023/12/16 07:15:50;;;;;;;4.80;3.40;;;;;;;;;;4918951;29;20029;-69
2023/12/16 07:18:16;;;;;;;6.03;3.70;;;;;;;;;;4918525;29;20683;-69
2023/12/16 07:20:41;;;;;;;4.95;3.88;;;;;;;;;;4919236;29;20292;-70
2023/12/16 07:23:07;;;;;;;5.40;3.60;;;;;;;;;;4919141;29;20035;-71
2023/12/16 07:25:32;;;;;;;5.93;3.55;;;;;;;;;;4918903;29;20039;-71
2023/12/16 07:27:58;;;;;;;6.82;3.70;;;;;;;;;;4919148;29;20025;-71
2023/12/16 07:30:23;;;;;;;4.93;3.50;;;;;;;;;;4919767;29;20477;-72
2023/12/16 07:32:49;;;;;;;5.22;3.70;;;;;;;;;;4918692;29;20024;-71
2023/12/16 07:35:15;;;;;;;4.93;3.70;;;;;;;;;;4919446;29;20141;-69
2023/12/16 07:37:41;;;;;;;5.10;3.85;;;;;;;;;;4917694;29;20028;-69
2023/12/16 07:40:11;;;;;;;4.45;3.58;;;;;;;;;;4918701;29;20034;-69
2023/12/16 07:42:37;;;;;;;4.70;4.00;;;;;;;;;;4918645;29;20028;-69
2023/12/16 07:45:06;;;;;;;4.88;3.53;;;;;;;;;;4918396;29;20028;-70
2023/12/16 07:47:32;;;;;;;4.22;3.53;;;;;;;;;;4918484;29;20137;-72
2023/12/16 07:49:58;;;;;;;5.80;3.60;;;;;;;;;;4918380;29;20036;-71
2023/12/16 07:52:24;;;;;;;5.90;3.83;;;;;;;;;;4918271;29;20413;-72
2023/12/16 07:54:50;;;;;;;5.95;3.42;;;;;;;;;;4918357;29;20043;-71
2023/12/16 07:57:15;;;;;;;6.07;4.20;;;;;;;;;;4918251;29;20425;-71
2023/12/16 07:59:41;;;;;;;6.50;3.78;;;;;;;;;;4918298;29;20160;-71
2023/12/16 08:02:08;;;;;;;8.70;4.10;;;;;;;;;;4918150;29;20058;-71
2023/12/16 08:04:33;;;;;;;4.78;3.90;;;;;;;;;;4918158;29;20470;-71
2023/12/16 08:06:59;;;;;;;5.38;3.60;;;;;;;;;;4918118;29;20037;-70
2023/12/16 08:09:24;;;;;;;5.82;4.18;;;;;;;;;;4918092;29;20537;-70
2023/12/16 08:11:50;;;;;;;4.97;4.15;;;;;;;;;;4918034;29;20024;-70
2023/12/16 08:14:16;;;;;;;6.63;3.95;;;;;;;;;;4918301;29;20040;-69
2023/12/16 08:16:41;;;;;;;4.93;3.92;;;;;;;;;;4918780;29;20503;-68
2023/12/16 08:19:07;;;;;;;5.25;3.72;;;;;;;;;;4918244;29;20384;-68
2023/12/16 08:21:32;;;;;;;5.13;3.67;;;;;;;;;;4918126;29;20024;-69
2023/12/16 08:23:58;;;;;;;4.80;4.00;;;;;;;;;;4918578;29;20448;-69
2023/12/16 08:26:24;;;;;;;6.65;4.35;;;;;;;;;;4917747;29;20107;-69
2023/12/16 08:28:50;;;;;;;5.03;3.97;;;;;;;;;;4917551;29;20028;-68
2023/12/16 08:31:16;;;;;;;6.15;4.05;;;;;;;;;;4919680;29;20032;-68
2023/12/16 08:33:41;;;;;;;4.88;3.95;;;;;;;;;;4917654;29;20036;-68
2023/12/16 08:36:07;;;;;;;4.85;3.83;;;;;;;;;;4917975;29;20043;-68
2023/12/16 08:38:35;;;;;;;4.72;3.95;;;;;;;;;;4917568;29;20035;-68
2023/12/16 08:41:06;;;;;;;5.93;3.92;;;;;;;;;;4917511;29;20461;-68
2023/12/16 08:43:32;;;;;;;4.95;4.13;;;;;;;;;;4917477;29;20024;-68
2023/12/16 08:45:57;;;;;;;5.38;4.07;;;;;;;;;;4917525;29;20601;-67
2023/12/16 08:48:23;;;;;;;5.18;3.95;;;;;;;;;;4917389;29;20020;-68
2023/12/16 08:50:48;;;;;;;4.65;3.85;;;;;;;;;;4916092;29;20064;-68
2023/12/16 08:53:14;;;;;;;5.13;3.85;;;;;;;;;;4917126;29;20050;-68
2023/12/16 08:55:42;;;;;;;7.82;5.07;;;;;;;;;;4917367;29;20028;-67
2023/12/16 08:58:08;;;;;;;5.80;3.97;;;;;;;;;;4917550;29;20024;-67
2023/12/16 09:00:34;;;;;;;5.07;4.10;;;;;;;;;;4918675;28;20505;-67
2023/12/16 09:02:59;;;;;;;5.85;4.30;;;;;;;;;;4917045;29;20039;-67
2023/12/16 09:05:27;;;;;;;5.32;4.30;;;;;;;;;;4917311;29;20035;-67
2023/12/16 09:07:53;;;;;;;5.05;4.03;;;;;;;;;;4916975;29;20020;-67
2023/12/16 09:10:18;;;;;;;4.70;3.80;;;;;;;;;;4917022;29;20024;-68
2023/12/16 09:12:44;;;;;;;5.90;4.18;;;;;;;;;;4917024;29;20035;-70
2023/12/16 09:15:09;;;;;;;5.40;4.10;;;;;;;;;;4916811;29;20125;-69
2023/12/16 09:17:35;;;;;;;5.45;4.05;;;;;;;;;;4916903;29;20052;-68
2023/12/16 09:20:01;;;;;;;4.75;3.80;;;;;;;;;;4899923;29;20052;-67
2023/12/16 09:22:28;;;;;;;5.68;4.05;;;;;;;;;;4916672;29;20052;-68
2023/12/16 09:24:53;;;;;;;4.05;3.65;;;;;;;;;;4916835;29;20083;-68
2023/12/16 09:27:19;;;;;;;4.18;3.60;;;;;;;;;;4917460;29;20389;-68
2023/12/16 09:29:44;;;;;;;4.25;3.85;;;;;;;;;;4916928;29;20403;-68
2023/12/16 09:32:10;;;;;;;5.40;3.60;;;;;;;;;;4917499;29;20024;-67
2023/12/16 09:34:35;;;;;;;5.35;3.92;;;;;;;;;;4916570;29;20035;-70
2023/12/16 09:37:01;;;;;;;4.68;3.75;;;;;;;;;;4916829;29;20024;-67
2023/12/16 09:39:26;;;;;;;5.53;3.60;;;;;;;;;;4916840;29;20043;-68
2023/12/16 09:41:55;;;;;;;4.30;3.72;;;;;;;;;;4916341;29;20382;-68
2023/12/16 09:44:24;;;;;;;5.03;3.90;;;;;;;;;;4918240;29;20036;-69
2023/12/16 09:46:50;;;;;;;6.65;4.07;;;;;;;;;;4916431;29;20031;-67
2023/12/16 09:49:16;;;;;;;5.43;4.32;;;;;;;;;;4916425;29;20029;-68
2023/12/16 09:51:42;;;;;;;3.95;3.08;;;;;;;;;;4916439;29;20066;-68
2023/12/16 09:54:08;;;;;;;4.78;3.97;;;;;;;;;;4915848;29;20048;-68
2023/12/16 09:56:35;;;;;;;4.45;4.03;;;;;;;;;;4916276;29;20051;-68
2023/12/16 09:59:01;;;;;;;5.40;3.95;;;;;;;;;;4916255;29;20115;-68
2023/12/16 10:01:28;;;;;;;5.75;3.80;;;;;;;;;;4918039;29;20450;-69
2023/12/16 10:03:53;;;;;;;3.72;3.25;;;;;;;;;;4916199;29;20047;-68
2023/12/16 10:06:19;;;;;;;5.60;3.90;;;;;;;;;;4916280;29;20044;-69
2023/12/16 10:08:44;;;;;;;4.65;3.60;;;;;;;;;;4916336;29;20058;-67
2023/12/16 10:11:10;;;;;;;5.15;3.90;;;;;;;;;;4916366;29;20048;-68
2023/12/16 10:13:55;;;;;;;4.88;3.95;;;;;;;;;;4916375;29;20107;-71
2023/12/16 10:16:22;;;;;;;3.83;3.42;;;;;;;;;;4915968;29;20066;-68
2023/12/16 10:18:55;;;;;;;4.38;3.50;;;;;;;;;;4915940;29;20494;-68
2023/12/16 10:21:33;;;;;;;5.30;3.80;;;;;;;;;;4915935;29;20560;-69
2023/12/16 10:24:02;;;;;;;4.68;3.58;;;;;;;;;;4899229;29;20024;-69
2023/12/16 10:26:30;;;;;;;4.68;3.75;;;;;;;;;;4916015;29;20028;-68
2023/12/16 10:28:56;;;;;;;4.55;3.42;;;;;;;;;;4914647;29;20024;-69
2023/12/16 10:31:22;;;;;;;4.35;3.72;;;;;;;;;;4906131;29;20081;-68
2023/12/16 10:33:48;;;;;;;5.10;3.88;;;;;;;;;;4905131;29;20036;-69
2023/12/16 10:36:15;;;;;;;4.97;3.90;;;;;;;;;;4901805;29;20119;-73
2023/12/16 10:38:41;;;;;;;4.40;3.45;;;;;;;;;;4897354;29;20033;-67
2023/12/16 10:41:06;;;;;;;4.82;4.00;;;;;;;;;;4897001;29;20048;-74
2023/12/16 10:43:32;;;;;;;4.88;4.07;;;;;;;;;;4896914;29;20474;-67
2023/12/16 10:46:04;;;;;;;4.07;3.65;;;;;;;;;;4897310;29;20100;-67
2023/12/16 10:48:32;;;;;;;4.95;3.53;;;;;;;;;;4896934;29;20067;-73
2023/12/16 10:51:01;;;;;;;4.55;3.50;;;;;;;;;;4902078;29;20358;-70
2023/12/16 10:53:41;;;;;;;4.43;3.55;;;;;;;;;;4908352;29;20055;-66
2023/12/16 10:56:17;;;;;;;4.10;3.42;;;;;;;;;;4910238;29;20474;-69
2023/12/16 10:58:50;;;;;;;3.80;3.35;;;;;;;;;;4910183;29;20032;-71
2023/12/16 11:01:23;;;;;;;4.90;3.60;;;;;;;;;;4908123;29;20108;-68
2023/12/16 11:04:11;;;;;;;4.30;3.03;;;;;;;;;;4913867;29;20036;-67
2023/12/16 11:06:50;;;;;;;5.32;3.47;;;;;;;;;;4918067;29;20560;-72
2023/12/16 11:09:17;;;;;;;3.85;3.22;;;;;;;;;;4917795;29;20059;-73
2023/12/16 11:11:45;;;;;;;6.25;3.70;;;;;;;;;;4916164;29;20028;-72
2023/12/16 11:14:11;;;;;;;4.63;3.55;;;;;;;;;;4917705;29;20031;-71
2023/12/16 11:16:49;;;;;;;4.35;3.40;;;;;;;;;;4916743;29;20028;-72
2023/12/16 11:19:16;;;;;;;4.38;3.38;;;;;;;;;;4916639;29;20032;-70
2023/12/16 11:21:43;;;;;;;4.50;3.42;;;;;;;;;;4916853;29;20482;-73
2023/12/16 11:24:10;;;;;;;4.60;3.55;;;;;;;;;;4915173;29;20144;-71
2023/12/16 11:26:35;;;;;;;4.55;3.22;;;;;;;;;;4916952;29;20035;-72
2023/12/16 11:29:04;;;;;;;4.00;3.60;;;;;;;;;;4915548;29;20024;-70
2023/12/16 11:31:30;;;;;;;4.38;3.60;;;;;;;;;;4914934;29;20548;-70
2023/12/16 11:33:56;;;;;;;4.10;3.70;;;;;;;;;;4916842;29;20032;-74
2023/12/16 11:36:51;;;;;;;5.13;3.88;;;;;;;;;;4917238;29;20040;-71
2023/12/16 11:39:36;;;;;;;4.93;3.55;;;;;;;;;;4915815;29;20533;-70
2023/12/16 11:42:03;;;;;;;5.43;3.67;;;;;;;;;;4915887;29;20466;-70
2023/12/16 11:44:48;;;;;;;4.18;3.40;;;;;;;;;;4915680;29;20164;-70
2023/12/16 11:47:28;;;;;;;3.95;3.55;;;;;;;;;;4917313;29;20024;-71
2023/12/16 11:49:54;;;;;;;;;;;;;;;;;;4914961;29;20115;-70
2023/12/16 11:52:24;;;;;;;4.78;3.38;;;;;;;;;;4915944;29;19923;-72
2023/12/16 11:54:54;;;;;;;4.20;3.55;;;;;;;;;;4914152;29;20453;-73
2023/12/16 11:57:24;;;;;;;4.88;3.47;;;;;;;;;;4917024;29;20028;-73
2023/12/16 11:59:51;;;;;;;5.95;3.70;;;;;;;;;;4916627;29;20058;-71
2023/12/16 12:02:18;;;;;;;6.22;3.80;;;;;;;;;;4916434;29;20028;-71
2023/12/16 12:04:44;;;;;;;5.55;3.97;;;;;;;;;;4914430;29;20024;-71
2023/12/16 12:07:10;;;;;;;4.22;3.67;;;;;;;;;;4916220;29;20036;-71
2023/12/16 12:09:39;;;;;;;4.45;3.63;;;;;;;;;;4916339;29;20017;-72
2023/12/16 12:12:05;;;;;;;4.18;3.72;;;;;;;;;;4915451;29;20024;-73
2023/12/16 12:14:31;;;;;;;4.82;3.65;;;;;;;;;;4915761;29;20036;-73
2023/12/16 12:16:57;;;;;;;4.40;3.65;;;;;;;;;;4914083;29;20445;-73
2023/12/16 12:19:23;;;;;;;5.28;3.60;;;;;;;;;;4918244;29;20031;-71
2023/12/16 12:21:50;;;;;;;5.50;3.63;;;;;;;;;;4914138;29;20068;-72
2023/12/16 12:24:15;;;;;;;9.13;3.90;;;;;;;;;;4915603;29;20032;-69
2023/12/16 12:26:42;;;;;;;5.00;4.10;;;;;;;;;;4917791;29;20028;-73
2023/12/16 12:29:08;;;;;;;7.45;5.00;;;;;;;;;;4917935;29;20429;-71
2023/12/16 12:32:03;;;;;;;6.45;4.90;;;;;;;;;;4917954;29;20063;-73
2023/12/16 12:34:29;;;;;;;6.75;4.90;;;;;;;;;;4915307;29;20044;-71
2023/12/16 12:36:55;;;;;;;8.38;4.82;;;;;;;;;;4916635;29;20052;-69
2023/12/16 12:39:21;;;;;;;6.47;5.38;;;;;;;;;;4914560;29;20030;-71
2023/12/16 12:42:03;;;;;;;7.50;5.20;;;;;;;;;;4914288;29;20044;-70
2023/12/16 12:44:35;;;;;;;7.82;6.03;;;;;;;;;;4914676;29;20024;-70
2023/12/16 12:47:00;;;;;;;7.05;5.60;;;;;;;;;;4915334;29;20516;-71
2023/12/16 12:49:33;;;;;;;7.60;5.50;;;;;;;;;;4914399;29;20051;-72
2023/12/16 12:51:58;;;;;;;9.18;6.07;;;;;;;;;;4916028;29;20044;-72
2023/12/16 12:54:25;;;;;;;7.88;5.70;;;;;;;;;;4915417;29;20032;-69
2023/12/16 12:56:51;;;;;;;9.02;5.75;;;;;;;;;;4915173;29;20366;-68
2023/12/16 12:59:17;;;;;;;5.68;4.75;;;;;;;;;;4917142;29;20035;-68
2023/12/16 13:01:44;;;;;;;7.35;5.20;;;;;;;;;;4917483;29;20028;-69
2023/12/16 13:04:10;;;;;;;8.95;5.53;;;;;;;;;;4917267;29;20024;-69
2023/12/16 13:06:36;;;;;;;6.50;4.97;;;;;;;;;;4915991;29;20488;-70
2023/12/16 13:09:04;;;;;;;6.57;5.13;;;;;;;;;;4916623;29;20078;-69
2023/12/16 13:11:31;;;;;;;6.25;4.75;;;;;;;;;;4916941;29;20032;-69
2023/12/16 13:13:56;;;;;;;9.13;5.28;;;;;;;;;;4917018;29;20035;-69
2023/12/16 13:16:22;;;;;;;5.90;4.65;;;;;;;;;;4916445;29;20028;-69
2023/12/16 13:18:52;;;;;;;6.03;4.72;;;;;;;;;;4916786;29;20106;-69
2023/12/16 13:21:18;;;;;;;5.15;4.65;;;;;;;;;;4916848;29;20040;-69
2023/12/16 13:23:44;;;;;;;9.68;4.68;;;;;;;;;;4916998;29;20084;-69
2023/12/16 13:26:12;;;;;;;8.77;4.43;;;;;;;;;;4916799;29;20028;-69
2023/12/16 13:28:40;;;;;;;7.82;4.82;;;;;;;;;;4899941;29;20027;-69
2023/12/16 13:31:06;;;;;;;6.13;4.35;;;;;;;;;;4916681;29;20095;-69
2023/12/16 13:33:36;;;;;;;6.45;4.32;;;;;;;;;;4916771;29;20058;-70
2023/12/16 13:36:02;;;;;;;5.70;4.43;;;;;;;;;;4916793;29;20028;-69
2023/12/16 13:38:27;;;;;;;7.88;4.80;;;;;;;;;;4917193;29;20028;-69
2023/12/16 13:40:53;;;;;;;5.13;4.10;;;;;;;;;;4916594;29;20024;-69
2023/12/16 13:43:20;;;;;;;6.95;4.28;;;;;;;;;;4916537;29;20032;-69
2023/12/16 13:45:47;;;;;;;5.55;4.30;;;;;;;;;;4916820;29;20020;-69
2023/12/16 13:48:13;;;;;;;5.43;4.22;;;;;;;;;;4916721;29;20024;-69
2023/12/16 13:50:38;;;;;;;6.50;4.47;;;;;;;;;;4916389;29;20386;-69
2023/12/16 13:53:04;;;;;;;4.57;4.00;;;;;;;;;;4917205;29;20051;-69
2023/12/16 13:55:29;;;;;;;5.32;3.92;;;;;;;;;;4916563;29;20109;-69
2023/12/16 13:57:55;;;;;;;4.85;3.88;;;;;;;;;;4916372;29;20536;-69
2023/12/16 14:00:21;;;;;;;6.90;4.15;;;;;;;;;;4916393;29;20031;-69
2023/12/16 14:02:47;;;;;;;4.57;3.58;;;;;;;;;;4916249;29;20118;-70
2023/12/16 14:05:12;;;;;;;6.50;3.85;;;;;;;;;;4916387;29;20156;-69
2023/12/16 14:07:38;;;;;;;5.07;4.07;;;;;;;;;;4916620;29;20028;-70
2023/12/16 14:10:04;;;;;;;5.88;3.78;;;;;;;;;;4916486;29;20028;-70
2023/12/16 14:12:30;;;;;;;6.03;3.63;;;;;;;;;;4916324;29;20084;-70
2023/12/16 14:14:55;;;;;;;4.28;3.53;;;;;;;;;;4916199;29;20063;-70
2023/12/16 14:17:21;;;;;;;5.72;4.20;;;;;;;;;;4916374;29;20036;-70
2023/12/16 14:19:46;;;;;;;4.00;3.60;;;;;;;;;;4916242;29;20114;-70
2023/12/16 14:22:12;;;;;;;3.95;3.55;;;;;;;;;;4916041;29;20036;-70
2023/12/16 14:24:37;;;;;;;3.85;3.45;;;;;;;;;;4916101;29;20028;-70
2023/12/16 14:27:03;;;;;;;5.60;3.80;;;;;;;;;;4916372;29;20030;-70
2023/12/16 14:29:29;;;;;;;4.10;3.58;;;;;;;;;;4919476;29;20026;-70
2023/12/16 14:31:55;;;;;;;4.18;3.60;;;;;;;;;;4919889;29;20421;-71
2023/12/16 14:34:23;;;;;;;4.68;3.70;;;;;;;;;;4919857;29;20024;-71
2023/12/16 14:36:49;;;;;;;3.90;3.28;;;;;;;;;;4920753;28;20039;-71
2023/12/16 14:39:15;;;;;;;4.40;3.70;;;;;;;;;;4919843;29;20032;-71